Latest Weather Observations for Low Rocky Point

IDT60801

Issued at 6:31 pm EST Friday 28 July 2017 (issued every 30 minutes, with the page automatically refreshed every 10 minutes)

About weather observations | Map of weather stations | Latest weather observations for TAS | Other Formats
Station Details ID: 097080 Name: LOW ROCKY POINT Lat: -42.98 Lon: 145.50 Height: 34.0 m
Data from the previous 72 hours. | See also: Recent months at Low Rocky Point
Date/Time
EST
Temp
°C
App
Temp
°C
Dew
Point
°C
Rel
Hum
%
Delta-T
°C
Wind Press
QNH
hPa
Press
MSL
hPa
Rain since
9am
mm
Dir  Spd
km/h
Gust
km/h
Spd
kts
Gust
kts
28/06:30pm 7.7 2.7 3.7 76 1.7 N 19 22 10 12 1014.0 1014.1 0.0
28/06:00pm 9.9 5.2 5.1 72 2.2 NW 19 24 10 13 1014.1 1014.2 0.0
28/05:30pm 10.0 5.1 5.0 71 2.3 WNW 20 28 11 15 1014.3 1014.4 0.0
28/05:00pm 10.1 4.1 5.3 72 2.2 WNW 26 32 14 17 1014.4 1014.5 0.0
28/04:30pm 10.6 5.1 6.0 73 2.1 WNW 24 30 13 16 1014.3 1014.4 0.0
28/04:00pm 11.0 5.6 6.2 72 2.2 WNW 24 30 13 16 1014.2 1014.3 0.0
28/03:30pm 11.0 5.9 6.2 72 2.2 WNW 22 33 12 18 1014.0 1014.1 0.0
28/03:00pm 11.0 6.0 6.6 74 2.1 W 22 28 12 15 1013.7 1013.8 0.0
28/02:30pm 12.1 7.3 7.4 73 2.3 W 22 28 12 15 1013.4 1013.5 0.0
28/02:00pm 10.9 3.8 6.6 75 2.0 WNW 33 39 18 21 1013.3 1013.4 0.0
28/01:30pm 10.7 5.8 6.8 77 1.8 W 22 39 12 21 1013.3 1013.4 0.0
28/01:00pm 11.7 5.7 7.0 73 2.3 W 28 35 15 19 1013.3 1013.4 0.0
28/12:30pm 10.5 6.7 7.6 82 1.4 WSW 17 32 9 17 1013.4 1013.5 0.0
28/12:00pm 9.8 4.1 6.9 82 1.4 WSW 26 35 14 19 1013.5 1013.6 0.0
28/11:30am 11.0 5.4 7.3 78 1.8 W 26 33 14 18 1013.1 1013.2 0.0
28/11:00am 10.9 6.5 7.2 78 1.8 WSW 20 32 11 17 1012.8 1012.9 0.0
28/10:30am 10.4 5.3 7.6 83 1.3 WSW 24 33 13 18 1012.5 1012.6 0.0
28/10:00am 10.0 5.0 7.9 87 1.0 WSW 24 35 13 19 1012.0 1012.1 0.0
28/09:30am 9.8 4.9 8.6 92 0.6 WSW 24 35 13 19 1011.5 1011.6 0.0
28/09:00am 9.4 4.5 8.5 94 0.4 SW 24 32 13 17 1011.0 1011.1 11.2
28/08:30am 9.3 4.3 8.2 93 0.5 SW 24 35 13 19 1010.4 1010.5 11.2
28/08:00am 9.5 3.0 8.1 91 0.7 SW 32 43 17 23 1009.9 1010.0 11.0
28/07:45am 10.2 4.5 8.5 89 0.8 WSW 28 46 15 25 1009.6 1009.7 10.8
28/07:30am 10.1 3.6 8.2 88 0.9 WSW 32 44 17 24 1009.3 1009.4 10.8
28/07:00am 10.0 2.6 8.3 89 0.8 WSW 37 54 20 29 1008.6 1008.7 10.8
28/06:54am 10.0 1.4 8.3 89 0.8 WSW 43 56 23 30 1008.5 1008.6 10.8
28/06:30am 10.1 2.4 8.7 91 0.7 W 39 52 21 28 1007.9 1008.0 10.8
28/06:00am 10.0 1.5 8.6 91 0.7 W 43 52 23 28 1007.3 1007.4 10.8
28/05:30am 10.3 2.0 9.2 93 0.5 WNW 43 56 23 30 1006.6 1006.7 10.8
28/05:09am 10.4 1.8 9.0 91 0.7 W 44 63 24 34 1006.4 1006.5 10.4
28/05:00am 10.3 1.8 9.1 92 0.6 WNW 44 54 24 29 1006.2 1006.3 10.4
28/04:30am 10.2 2.3 9.3 94 0.4 WNW 41 48 22 26 1005.9 1006.0 10.4
28/04:00am 10.4 1.6 9.6 95 0.4 WNW 46 54 25 29 1005.3 1005.4 10.4
28/03:30am 9.6 0.3 9.0 96 0.3 WNW 48 59 26 32 1005.0 1005.1 10.4
28/03:02am 10.1 2.3 9.8 98 0.2 WNW 41 65 22 35 1004.8 1004.9 10.2
28/03:00am 9.8 2.6 9.3 97 0.2 WNW 37 48 20 26 1004.9 1005.0 10.2
28/02:36am 9.9 1.9 9.1 95 0.4 WNW 41 61 22 33 1004.9 1005.0 9.0
28/02:30am 10.2 2.4 9.6 96 0.3 WNW 41 48 22 26 1004.7 1004.8 9.0
28/02:00am 10.1 3.0 9.6 97 0.3 NW 37 48 20 26 1004.7 1004.8 9.0
28/01:36am 9.2 -0.2 8.6 96 0.3 WNW 48 69 26 37 1004.4 1004.5 8.8
28/01:31am 9.5 -1.9 8.9 96 0.3 WNW 59 78 32 42 1004.4 1004.5 8.8
28/01:30am 9.5 -2.3 8.9 96 0.3 WNW 61 78 33 42 1004.3 1004.4 8.8
28/01:19am 9.6 -1.2 9.1 97 0.2 WNW 56 78 30 42 1003.9 1004.0 8.8
28/01:01am 10.2 1.1 9.9 98 0.2 WNW 48 69 26 37 1003.9 1004.0 8.6
28/01:00am 10.5 1.5 10.3 99 0.1 WNW 48 65 26 35 1003.9 1004.0 8.6
28/12:30am 10.1 4.1 10.0 99 0.1 NNW 32 56 17 30 1004.0 1004.1 8.6
28/12:29am 10.0 4.7 9.9 99 0.1 NNW 28 56 15 30 1004.1 1004.2 8.6
28/12:00am 8.7 2.7 8.6 99 0.0 N 30 37 16 20 1004.5 1004.6 8.6
 
Date/Time
EST
Temp
°C
App
Temp
°C
Dew
Point
°C
Rel
Hum
%
Delta-T
°C
Wind Press
QNH
hPa
Press
MSL
hPa
Rain since
9am
mm
Dir  Spd
km/h
Gust
km/h
Spd
kts
Gust
kts
27/11:30pm 8.9 2.0 8.8 99 0.0 NNW 35 48 19 26 1004.3 1004.4 8.2
27/11:00pm 8.9 2.9 8.5 97 0.2 NNW 30 41 16 22 1004.1 1004.2 7.8
27/10:31pm 8.9 0.7 8.3 96 0.3 NNW 41 59 22 32 1004.2 1004.3 7.8
27/10:30pm 9.0 0.5 8.4 96 0.3 NNW 43 59 23 32 1004.3 1004.4 7.8
27/10:06pm 9.7 1.6 8.8 94 0.4 NNW 41 59 22 32 1004.1 1004.2 5.6
27/10:00pm 9.6 1.9 8.5 93 0.5 NNW 39 56 21 30 1004.0 1004.1 5.0
27/09:41pm 9.4 1.9 7.8 90 0.8 NNW 37 56 20 30 1004.0 1004.1 2.2
27/09:30pm 9.5 2.3 7.8 89 0.8 N 35 50 19 27 1004.1 1004.2 1.2
27/09:00pm 9.5 0.5 7.1 85 1.1 NNW 44 63 24 34 1004.0 1004.1 0.6
27/08:30pm 10.3 1.3 6.6 78 1.7 NNW 43 70 23 38 1004.4 1004.5 0.0
27/08:11pm 11.5 3.7 6.6 72 2.3 N 37 57 20 31 1004.4 1004.5 0.0
27/08:00pm 11.3 3.8 6.4 72 2.3 N 35 52 19 28 1004.4 1004.5 0.0
27/07:30pm 11.1 3.6 6.3 72 2.3 N 35 56 19 30 1004.8 1004.9 0.0
27/07:00pm 11.0 2.7 6.2 72 2.3 N 39 61 21 33 1005.1 1005.2 0.0
27/06:32pm 10.5 2.9 5.9 73 2.1 N 35 54 19 29 1005.4 1005.5 0.0
27/06:30pm 10.5 2.9 5.9 73 2.1 N 35 50 19 27 1005.4 1005.5 0.0
27/06:00pm 10.4 2.0 5.8 73 2.1 N 39 57 21 31 1005.8 1005.9 0.0
27/05:35pm 10.4 2.4 5.8 73 2.1 N 37 57 20 31 1006.2 1006.3 0.0
27/05:30pm 10.2 2.2 5.6 73 2.1 N 37 52 20 28 1006.3 1006.4 0.0
27/05:10pm 10.6 3.4 6.0 73 2.1 N 33 52 18 28 1006.7 1006.8 0.0
27/05:00pm 10.6 3.4 6.0 73 2.1 N 33 48 18 26 1006.9 1007.0 0.0
27/04:30pm 10.9 3.4 6.1 72 2.2 N 35 54 19 29 1007.2 1007.3 0.0
27/04:16pm 11.1 4.0 6.3 72 2.3 N 33 52 18 28 1007.6 1007.7 0.0
27/04:00pm 11.3 3.4 6.4 72 2.3 N 37 54 20 29 1007.9 1008.0 0.0
27/03:30pm 11.2 3.4 6.5 73 2.2 NNW 37 50 20 27 1008.2 1008.3 0.0
27/03:09pm 11.2 4.4 6.7 74 2.1 N 32 50 17 27 1008.4 1008.5 0.0
27/03:00pm 11.2 3.4 6.7 74 2.1 N 37 50 20 27 1008.5 1008.6 0.0
27/02:30pm 11.2 3.8 6.7 74 2.1 NNW 35 54 19 29 1009.0 1009.1 0.0
27/02:02pm 11.3 3.9 6.6 73 2.2 N 35 57 19 31 1009.0 1009.1 0.0
27/02:00pm 11.3 3.9 6.6 73 2.2 N 35 50 19 27 1009.0 1009.1 0.0
27/01:30pm 11.2 4.1 6.5 73 2.2 N 33 48 18 26 1010.0 1010.1 0.0
27/01:09pm 11.4 4.6 6.7 73 2.2 N 32 50 17 27 1010.8 1010.9 0.0
27/01:00pm 11.5 4.7 6.8 73 2.2 N 32 46 17 25 1010.9 1011.0 0.0
27/12:30pm 11.7 5.0 7.4 75 2.1 N 32 50 17 27 1011.7 1011.8 0.0
27/12:25pm 11.7 5.0 7.4 75 2.1 N 32 50 17 27 1011.9 1012.0 0.0
27/12:00pm 10.8 4.0 6.9 77 1.9 NNW 32 46 17 25 1013.0 1013.1 0.0
27/11:42am 10.8 4.0 6.9 77 1.9 NNW 32 50 17 27 1013.4 1013.5 0.0
27/11:30am 10.8 4.0 7.1 78 1.8 NNW 32 46 17 25 1013.5 1013.6 0.0
27/11:00am 9.8 2.9 6.5 80 1.5 N 32 54 17 29 1014.1 1014.2 0.0
27/10:30am 9.3 2.3 5.9 79 1.6 N 32 46 17 25 1014.7 1014.8 0.0
27/10:00am 9.1 2.4 5.7 79 1.5 NNW 30 48 16 26 1014.9 1015.0 0.0
27/09:30am 8.4 1.6 5.0 79 1.5 N 30 46 16 25 1015.6 1015.6 0.0
27/09:00am 7.8 1.3 4.6 80 1.4 N 28 35 15 19 1015.7 1015.7 1.2
27/08:30am 6.9 0.7 4.2 83 1.2 N 26 35 14 19 1016.0 1016.0 1.2
27/08:00am 5.7 -0.7 3.2 84 1.0 NNE 26 35 14 19 1016.2 1016.3 1.2
27/07:30am 5.3 -0.8 2.8 84 1.0 NNE 24 32 13 17 1016.7 1016.7 1.2
27/07:00am 5.5 -0.2 2.8 83 1.1 NNE 22 35 12 19 1016.7 1016.8 1.2
27/06:30am 5.9 -0.9 2.9 81 1.2 N 28 37 15 20 1016.5 1016.5 1.2
27/06:00am 6.6 -0.1 3.6 81 1.3 N 28 35 15 19 1017.0 1017.1 1.2
27/05:30am 6.4 0.0 3.4 81 1.3 N 26 33 14 18 1017.1 1017.1 1.2
27/05:00am 5.7 0.4 2.9 82 1.2 N 20 30 11 16 1017.3 1017.4 1.2
27/04:30am 5.0 -0.9 2.0 81 1.2 NNE 22 30 12 16 1017.3 1017.3 1.2
27/04:00am 5.2 -0.7 2.0 80 1.3 NNE 22 26 12 14 1017.5 1017.6 1.2
27/03:30am 5.6 -0.2 2.1 78 1.4 NNE 22 30 12 16 1017.8 1017.8 1.2
27/03:00am 5.8 0.5 1.9 76 1.6 NNE 19 24 10 13 1018.0 1018.1 1.2
27/02:30am 6.4 2.1 1.3 70 2.0 N 13 26 7 14 1018.4 1018.4 1.2
27/02:00am 9.0 2.1 2.8 65 2.6 NW 28 35 15 19 1018.5 1018.6 1.2
27/01:30am 8.9 2.0 2.5 64 2.7 WNW 28 37 15 20 1018.5 1018.5 1.2
27/01:00am 8.9 2.5 3.3 68 2.4 WNW 26 32 14 17 1018.8 1018.9 1.2
27/12:30am 8.9 1.8 3.5 69 2.3 WNW 30 41 16 22 1018.9 1018.9 1.2
27/12:00am 8.7 1.6 3.3 69 2.3 WNW 30 37 16 20 1019.1 1019.2 1.2
 
Date/Time
EST
Temp
°C
App
Temp
°C
Dew
Point
°C
Rel
Hum
%
Delta-T
°C
Wind Press
QNH
hPa
Press
MSL
hPa
Rain since
9am
mm
Dir  Spd
km/h
Gust
km/h
Spd
kts
Gust
kts
26/11:30pm 8.9 1.6 4.5 74 1.9 WNW 32 41 17 22 1019.1 1019.1 1.2
26/11:00pm 8.4 1.5 4.4 76 1.8 WNW 30 37 16 20 1019.1 1019.2 1.2
26/10:30pm 8.4 1.1 4.6 77 1.7 WNW 32 41 17 22 1019.0 1019.0 1.2
26/10:00pm 8.1 2.7 4.7 79 1.5 W 22 26 12 14 1018.9 1019.0 1.2
26/09:30pm 7.7 1.1 4.1 78 1.6 W 28 33 15 18 1018.8 1018.8 1.2
26/09:00pm 7.8 -1.6 4.4 79 1.5 W 43 48 23 26 1018.6 1018.7 1.2
26/08:30pm 7.3 0.7 4.1 80 1.4 WNW 28 44 15 24 1018.6 1018.6 1.2
26/08:00pm 6.9 0.2 3.5 79 1.4 WNW 28 33 15 18 1018.6 1018.7 1.2
26/07:36pm 7.4 2.4 3.6 77 1.6 W 19 43 10 23 1018.2 1018.2 1.0
26/07:30pm 6.9 3.3 3.0 76 1.6 W 11 19 6 10 1018.3 1018.3 1.0
26/07:00pm 8.7 1.8 2.5 65 2.6 W 28 39 15 21 1017.8 1017.9 0.2
26/06:30pm 8.5 1.9 2.3 65 2.6 W 26 32 14 17 1017.7 1017.7 0.2
26/06:00pm 8.8 1.6 1.0 58 3.2 W 28 35 15 19 1017.4 1017.5 0.2
26/05:30pm 8.8 1.4 1.7 61 2.9 W 30 39 16 21 1017.0 1017.0 0.2
26/05:00pm 9.0 2.7 1.7 60 3.0 WSW 24 33 13 18 1016.7 1016.8 0.2
26/04:30pm 8.8 2.2 1.9 62 2.9 WSW 26 32 14 17 1016.4 1016.4 0.2
26/04:00pm 9.8 3.4 3.1 63 2.9 WSW 26 33 14 18 1016.0 1016.0 0.2
26/03:30pm 10.0 3.3 3.7 65 2.8 WSW 28 37 15 20 1015.8 1015.8 0.2
26/03:00pm 9.1 3.5 3.7 69 2.3 WSW 22 33 12 18 1015.4 1015.5 0.2
26/02:30pm 9.3 3.5 4.5 72 2.1 WSW 24 35 13 19 1015.1 1015.2 0.2
26/02:00pm 8.3 2.0 3.9 74 1.9 WSW 26 39 14 21 1014.8 1014.9 0.2
26/01:30pm 9.2 5.0 5.6 78 1.6 W 17 24 9 13 1014.5 1014.6 0.2
26/01:00pm 8.2 1.5 3.9 74 1.9 WSW 28 56 15 30 1014.5 1014.6 0.2
26/12:30pm 9.4 3.3 4.6 72 2.1 SW 26 35 14 19 1014.3 1014.4 0.2
26/12:00pm 8.8 3.0 4.2 73 2.0 SW 24 35 13 19 1014.0 1014.1 0.2
26/11:30am 8.8 3.0 4.2 73 2.0 SW 24 32 13 17 1013.9 1014.0 0.2
26/11:00am 9.2 4.4 5.6 78 1.6 SW 20 32 11 17 1013.5 1013.6 0.2
26/10:30am 8.6 5.6 5.9 83 1.2 S 11 17 6 9 1013.3 1013.4 0.2
26/10:00am 6.9 -0.2 3.5 79 1.4 SSW 30 44 16 24 1013.0 1013.1 0.2
26/09:30am 8.0 1.9 4.8 80 1.4 SW 26 39 14 21 1012.5 1012.6 0.0
26/09:00am 8.1 1.7 5.0 81 1.4 S 28 35 15 19 1011.7 1011.8 12.6
26/08:30am 7.7 0.5 5.2 84 1.1 S 32 41 17 22 1011.2 1011.3 12.6
26/08:15am 7.7 1.3 5.3 85 1.1 SSW 28 43 15 23 1010.7 1010.8 12.6
26/08:00am 7.9 2.7 5.5 85 1.1 SSW 22 32 12 17 1010.5 1010.6 12.6
26/07:30am 7.8 0.8 5.9 88 0.9 S 32 44 17 24 1009.5 1009.6 12.6
26/07:00am 7.9 1.0 6.5 91 0.6 S 32 43 17 23 1008.8 1008.9 12.6
26/06:30am 8.2 0.9 7.4 95 0.4 S 35 46 19 25 1007.9 1008.0 12.6
26/06:00am 7.9 1.1 7.6 98 0.1 S 33 48 18 26 1007.1 1007.2 12.6
26/05:30am 7.8 -0.5 7.7 99 0.0 S 41 52 22 28 1006.0 1006.1 12.6
26/05:00am 8.0 -0.3 7.9 99 0.0 S 41 54 22 29 1005.4 1005.5 12.6
26/04:30am 8.2 0.4 8.1 99 0.0 SSE 39 52 21 28 1004.5 1004.6 12.6
26/04:00am 8.5 0.3 8.4 99 0.0 SSE 41 54 22 29 1003.7 1003.8 12.6
26/03:30am 8.6 -0.1 8.5 99 0.0 SSE 44 54 24 29 1002.9 1003.0 12.6
26/03:00am 9.0 1.0 8.9 99 0.0 SSE 41 56 22 30 1002.1 1002.2 12.4
26/02:56am 9.2 2.0 9.1 99 0.0 SSE 37 56 20 30 1002.1 1002.2 12.4
26/02:30am 9.3 2.5 9.2 99 0.0 SSE 35 46 19 25 1001.4 1001.5 10.4
26/02:00am 9.3 4.6 9.2 99 0.0 S 24 32 13 17 1000.9 1001.0 10.0
26/01:30am 9.2 4.5 9.1 99 0.0 S 24 33 13 18 1000.5 1000.6 9.8
26/01:00am 9.3 7.1 9.2 99 0.0 WSW 11 22 6 12 1000.4 1000.5 9.8
26/12:30am 8.9 7.3 8.8 99 0.0 W 7 13 4 7 1000.4 1000.5 9.0
26/12:00am 9.3 5.3 9.2 99 0.0 W 20 32 11 17 1000.5 1000.6 8.6
 
Date/Time
EST
Temp
°C
App
Temp
°C
Dew
Point
°C
Rel
Hum
%
Delta-T
°C
Wind Press
QNH
hPa
Press
MSL
hPa
Rain since
9am
mm
Dir  Spd
km/h
Gust
km/h
Spd
kts
Gust
kts
25/11:30pm 8.5 6.8 8.4 99 0.0 ENE 7 13 4 7 1000.4 1000.5 5.4
25/11:00pm 8.7 6.7 8.6 99 0.0 NNE 9 13 5 7 1000.7 1000.8 4.2
25/10:30pm 9.0 6.6 8.7 98 0.1 N 11 15 6 8 1001.2 1001.3 4.2
25/10:00pm 9.5 6.8 9.0 97 0.2 NNW 13 20 7 11 1001.3 1001.4 3.2
25/09:30pm 9.3 4.5 8.7 96 0.3 NW 24 30 13 16 1001.6 1001.7 3.2
25/09:25pm 9.3 4.0 8.5 95 0.4 NW 26 30 14 16 1001.7 1001.8 3.2
25/09:00pm 9.8 0.3 8.4 91 0.7 NW 48 59 26 32 1001.7 1001.8 1.0
25/08:30pm 11.4 3.1 9.5 88 1.0 NW 43 52 23 28 1001.1 1001.2 0.6
25/08:00pm 11.4 3.1 9.3 87 1.1 NW 43 56 23 30 1001.4 1001.5 0.6
25/07:30pm 11.5 2.3 9.6 88 1.0 NW 48 61 26 33 1001.6 1001.7 0.6
25/07:00pm 11.8 3.0 9.7 87 1.1 NW 46 57 25 31 1001.7 1001.8 0.4
25/06:46pm 11.6 2.8 9.5 87 1.1 NW 46 65 25 35 1001.5 1001.6 0.4

Other Formats:

Comma delimited format used in spreadsheet applications
http://www.bom.gov.au/fwo/IDT60801/IDT60801.95961.axf

JavaScript Object Notation format (JSON) in row-major order
http://www.bom.gov.au/fwo/IDT60801/IDT60801.95961.json